Time;durP1;ratioP1;P1;durP2;ratioP2;P2;SDS_P1;SDS_P2;PMS_P1;PMS_P2;Temp;Humidity;BMP_temperature;BMP_pressure;BME280_temperature;BME280_humidity;BME280_pressure;Samples;Min_cycle;Max_cycle;Signal;HPM_P1;HPM_P2
2023/12/02 00:00:23;;;;;;;20.13;8.57;;;;;;;;;;5078802;28;20404;-68
2023/12/02 00:02:49;;;;;;;18.77;9.03;;;;;;;;;;5096076;28;20745;-68
2023/12/02 00:05:16;;;;;;;20.70;8.47;;;;;;;;;;5078535;28;20451;-68
2023/12/02 00:07:43;;;;;;;22.90;10.67;;;;;;;;;;5097215;28;20420;-68
2023/12/02 00:10:12;;;;;;;21.43;10.10;;;;;;;;;;5078078;28;20447;-68
2023/12/02 00:12:39;;;;;;;25.83;11.80;;;;;;;;;;5077995;28;20546;-68
2023/12/02 00:15:07;;;;;;;23.13;11.03;;;;;;;;;;5060156;28;20439;-68
2023/12/02 00:17:51;;;;;;;23.10;11.13;;;;;;;;;;5065911;28;20399;-69
2023/12/02 00:20:17;;;;;;;22.47;11.00;;;;;;;;;;5078530;28;20416;-69
2023/12/02 00:26:55;;;;;;;19.43;9.67;;;;;;;;;;5096254;28;20360;-68
2023/12/02 00:29:22;;;;;;;24.37;10.90;;;;;;;;;;5096266;28;20467;-68
2023/12/02 00:31:49;;;;;;;27.80;11.53;;;;;;;;;;5077887;28;20462;-68
2023/12/02 00:41:49;;;;;;;24.83;10.87;;;;;;;;;;5077952;28;20436;-69
2023/12/02 00:44:16;;;;;;;24.97;11.20;;;;;;;;;;5096344;28;20411;-68
2023/12/02 00:46:43;;;;;;;21.50;10.60;;;;;;;;;;5095643;28;20427;-69
2023/12/02 00:49:09;;;;;;;21.03;9.80;;;;;;;;;;5064066;28;20544;-69
2023/12/02 00:51:51;;;;;;;20.87;9.47;;;;;;;;;;5053623;28;20467;-69
2023/12/02 00:54:18;;;;;;;17.50;9.17;;;;;;;;;;5053133;28;20421;-69
2023/12/02 00:57:02;;;;;;;19.50;9.23;;;;;;;;;;5054809;28;20425;-69
2023/12/02 01:03:29;;;;;;;22.03;9.43;;;;;;;;;;5055215;28;20385;-68
2023/12/02 01:05:55;;;;;;;20.27;9.27;;;;;;;;;;5055106;28;20436;-68
2023/12/02 01:08:22;;;;;;;20.83;10.33;;;;;;;;;;5037425;28;20457;-69
2023/12/02 01:52:32;;;;;;;15.63;8.80;;;;;;;;;;5092990;28;20449;-69
2023/12/02 02:02:57;;;;;;;16.60;8.27;;;;;;;;;;5094326;28;20356;-69
2023/12/02 02:05:24;;;;;;;17.40;7.77;;;;;;;;;;5076601;28;20751;-68
2023/12/02 02:07:51;;;;;;;20.93;8.90;;;;;;;;;;5093077;28;20416;-69
2023/12/02 02:18:04;;;;;;;17.03;8.83;;;;;;;;;;5094182;28;20364;-69
2023/12/02 02:20:32;;;;;;;21.50;9.07;;;;;;;;;;5094497;28;20431;-69
2023/12/02 02:22:58;;;;;;;24.37;10.20;;;;;;;;;;5092989;28;20438;-69
2023/12/02 02:25:29;;;;;;;24.87;10.23;;;;;;;;;;5075997;28;20772;-69
2023/12/02 02:35:22;;;;;;;23.40;10.13;;;;;;;;;;5093452;28;20538;-69
2023/12/02 02:37:49;;;;;;;26.63;10.40;;;;;;;;;;5094122;28;20421;-69
2023/12/02 02:44:09;;;;;;;24.60;9.77;;;;;;;;;;5093300;28;20758;-69
2023/12/02 02:46:36;;;;;;;35.33;10.87;;;;;;;;;;5092519;28;20470;-69
2023/12/02 02:49:03;;;;;;;22.87;9.60;;;;;;;;;;5057965;28;20460;-69
2023/12/02 02:51:30;;;;;;;25.43;10.13;;;;;;;;;;5058867;28;20455;-69
2023/12/02 02:54:13;;;;;;;23.13;9.83;;;;;;;;;;5075563;28;20416;-68
2023/12/02 03:00:39;;;;;;;22.10;9.13;;;;;;;;;;5093698;28;20422;-68
2023/12/02 03:03:06;;;;;;;25.77;9.43;;;;;;;;;;5093039;28;20423;-68
2023/12/02 03:13:25;;;;;;;14.80;7.33;;;;;;;;;;5094257;28;20431;-68
2023/12/02 03:15:51;;;;;;;15.10;7.37;;;;;;;;;;5059003;28;20430;-68
2023/12/02 03:18:18;;;;;;;12.97;6.20;;;;;;;;;;5093459;28;20472;-68
2023/12/02 03:20:45;;;;;;;12.50;6.07;;;;;;;;;;5059453;28;20415;-69
2023/12/02 03:23:29;;;;;;;14.80;6.77;;;;;;;;;;5093082;28;20766;-68
2023/12/02 03:25:56;;;;;;;10.67;5.40;;;;;;;;;;5092256;28;20754;-68
2023/12/02 03:28:23;;;;;;;13.07;6.60;;;;;;;;;;5093098;28;20411;-68
2023/12/02 03:30:50;;;;;;;13.07;6.33;;;;;;;;;;5075164;28;20554;-68
2023/12/02 03:37:10;;;;;;;13.47;6.60;;;;;;;;;;5093457;28;20382;-68
2023/12/02 03:39:36;;;;;;;12.67;6.03;;;;;;;;;;5096510;28;20529;-68
2023/12/02 03:42:30;;;;;;;12.57;5.97;;;;;;;;;;5077855;28;20481;-68
2023/12/02 03:44:57;;;;;;;13.37;6.17;;;;;;;;;;5096246;28;20456;-68
2023/12/02 03:51:23;;;;;;;15.40;6.90;;;;;;;;;;5090963;28;20492;-68
2023/12/02 03:57:50;;;;;;;12.97;6.00;;;;;;;;;;5096766;28;20424;-68
2023/12/02 04:00:19;;;;;;;16.00;6.30;;;;;;;;;;5078457;28;20431;-67
2023/12/02 04:05:58;;;;;;;12.67;6.00;;;;;;;;;;5094490;28;20521;-67
2023/12/02 04:12:18;;;;;;;10.83;4.97;;;;;;;;;;5096444;28;20829;-67
2023/12/02 04:15:02;;;;;;;12.40;5.57;;;;;;;;;;5081669;28;20851;-67
2023/12/02 04:17:29;;;;;;;13.70;5.30;;;;;;;;;;5096588;28;20418;-67
2023/12/02 04:20:32;;;;;;;9.80;4.70;;;;;;;;;;5094279;28;20458;-67
2023/12/02 04:22:59;;;;;;;23.37;5.47;;;;;;;;;;5095068;28;20457;-69
2023/12/02 04:25:26;;;;;;;12.57;5.93;;;;;;;;;;5097081;28;20415;-68
2023/12/02 04:27:53;;;;;;;16.73;6.83;;;;;;;;;;5061331;28;20447;-69
2023/12/02 04:30:20;;;;;;;13.13;5.63;;;;;;;;;;5096595;28;20408;-69
2023/12/02 04:33:04;;;;;;;13.10;5.57;;;;;;;;;;5081146;28;20761;-68
2023/12/02 04:35:32;;;;;;;16.07;6.37;;;;;;;;;;5096673;28;20416;-69
2023/12/02 04:38:16;;;;;;;15.83;6.77;;;;;;;;;;5081263;28;20453;-69
2023/12/02 04:40:43;;;;;;;13.90;6.13;;;;;;;;;;5077045;28;20518;-68
2023/12/02 04:43:27;;;;;;;15.60;6.67;;;;;;;;;;5079396;28;20400;-68
2023/12/02 04:45:54;;;;;;;15.93;6.43;;;;;;;;;;5077731;28;20827;-69
2023/12/02 04:48:39;;;;;;;15.47;6.40;;;;;;;;;;5095722;28;20384;-68
2023/12/02 04:51:06;;;;;;;16.20;6.53;;;;;;;;;;5095285;28;20474;-69
2023/12/02 04:53:33;;;;;;;13.97;5.87;;;;;;;;;;5078046;28;20443;-69
2023/12/02 04:56:00;;;;;;;18.27;6.73;;;;;;;;;;5078152;28;20419;-69
2023/12/02 04:58:27;;;;;;;23.50;5.87;;;;;;;;;;5061204;28;20489;-68
2023/12/02 05:01:04;;;;;;;12.20;4.93;;;;;;;;;;5075927;28;20424;-69
2023/12/02 05:04:05;;;;;;;13.27;5.20;;;;;;;;;;5094059;28;20476;-68
2023/12/02 05:06:50;;;;;;;24.43;7.43;;;;;;;;;;5095731;28;20384;-69
2023/12/02 05:13:16;;;;;;;22.43;7.17;;;;;;;;;;5095816;28;20508;-69
2023/12/02 05:15:43;;;;;;;16.53;7.03;;;;;;;;;;5095498;28;20435;-68
2023/12/02 05:18:10;;;;;;;25.70;7.57;;;;;;;;;;5077278;28;20786;-68
2023/12/02 05:21:05;;;;;;;17.13;6.77;;;;;;;;;;5075725;28;20472;-69
2023/12/02 05:23:32;;;;;;;19.23;6.40;;;;;;;;;;5094813;28;20428;-68
2023/12/02 05:25:58;;;;;;;16.97;6.67;;;;;;;;;;5094922;28;20427;-69
2023/12/02 05:28:25;;;;;;;13.30;6.40;;;;;;;;;;5076777;28;20442;-69
2023/12/02 05:35:10;;;;;;;15.57;7.40;;;;;;;;;;5094924;28;20377;-68
2023/12/02 05:37:54;;;;;;;18.97;8.17;;;;;;;;;;5079122;28;20775;-68
2023/12/02 05:47:33;;;;;;;14.93;6.60;;;;;;;;;;5094336;28;20498;-68
2023/12/02 05:49:59;;;;;;;14.93;6.57;;;;;;;;;;5076564;28;20450;-69
2023/12/02 05:52:26;;;;;;;12.80;6.80;;;;;;;;;;5077091;28;20812;-68
2023/12/02 05:54:52;;;;;;;13.60;6.93;;;;;;;;;;5060760;28;20913;-68
2023/12/02 05:57:37;;;;;;;12.03;6.30;;;;;;;;;;5059331;28;20428;-69
2023/12/02 06:00:04;;;;;;;13.43;6.37;;;;;;;;;;5093474;28;20427;-69
2023/12/02 06:02:31;;;;;;;12.67;5.87;;;;;;;;;;5058856;28;20950;-68
2023/12/02 06:09:37;;;;;;;14.13;6.50;;;;;;;;;;5094039;28;20961;-69
2023/12/02 06:12:04;;;;;;;15.50;6.57;;;;;;;;;;5092928;28;20528;-68
2023/12/02 06:14:32;;;;;;;14.17;6.93;;;;;;;;;;5076219;28;20547;-68
2023/12/02 06:17:00;;;;;;;15.17;6.97;;;;;;;;;;5075814;28;20783;-69
2023/12/02 06:19:27;;;;;;;13.40;7.00;;;;;;;;;;5075307;28;20423;-69
2023/12/02 06:21:54;;;;;;;14.77;6.97;;;;;;;;;;5059415;28;20427;-68
2023/12/02 06:24:21;;;;;;;15.60;7.27;;;;;;;;;;5076131;28;20938;-69
2023/12/02 06:26:47;;;;;;;14.63;6.57;;;;;;;;;;5076262;28;20426;-68
2023/12/02 06:29:15;;;;;;;13.33;5.87;;;;;;;;;;5076315;28;20431;-68
2023/12/02 06:31:42;;;;;;;15.23;7.53;;;;;;;;;;5076228;28;20913;-69
2023/12/02 06:34:08;;;;;;;18.03;8.57;;;;;;;;;;5060221;28;20759;-69
2023/12/02 06:36:35;;;;;;;18.87;10.20;;;;;;;;;;5093060;28;20511;-68
2023/12/02 06:43:01;;;;;;;15.57;8.10;;;;;;;;;;5093636;28;20383;-67
2023/12/02 06:49:46;;;;;;;12.90;6.63;;;;;;;;;;5093714;28;20359;-67
2023/12/02 06:52:13;;;;;;;15.80;8.10;;;;;;;;;;5060192;28;20475;-67
2023/12/02 06:54:57;;;;;;;15.07;7.97;;;;;;;;;;5078587;28;20411;-69
2023/12/02 06:57:27;;;;;;;16.67;9.13;;;;;;;;;;5092390;28;20416;-67
2023/12/02 06:59:54;;;;;;;16.37;7.90;;;;;;;;;;5075057;28;20447;-67
2023/12/02 07:02:20;;;;;;;15.13;8.60;;;;;;;;;;5075309;28;20510;-68
2023/12/02 07:08:40;;;;;;;13.53;7.83;;;;;;;;;;5093501;28;20386;-68
2023/12/02 07:11:07;;;;;;;14.87;7.57;;;;;;;;;;5059014;28;20430;-68
2023/12/02 07:13:33;;;;;;;14.43;8.30;;;;;;;;;;5095434;28;20890;-69
2023/12/02 07:16:00;;;;;;;16.00;8.20;;;;;;;;;;5062347;28;20478;-68
2023/12/02 07:22:26;;;;;;;18.23;8.90;;;;;;;;;;5097130;28;20904;-68
2023/12/02 07:28:53;;;;;;;16.23;7.93;;;;;;;;;;5097260;28;20410;-68
2023/12/02 07:31:20;;;;;;;17.27;8.40;;;;;;;;;;5097644;28;20504;-68
2023/12/02 07:33:47;;;;;;;18.30;8.40;;;;;;;;;;5080017;28;20423;-68
2023/12/02 07:36:13;;;;;;;19.50;10.17;;;;;;;;;;5096370;28;20751;-69
2023/12/02 07:38:43;;;;;;;18.67;9.50;;;;;;;;;;5096150;28;20442;-69
2023/12/02 07:41:10;;;;;;;16.97;9.07;;;;;;;;;;5079153;28;20467;-68
2023/12/02 07:47:36;;;;;;;21.57;10.43;;;;;;;;;;5096985;28;20849;-69
2023/12/02 07:50:03;;;;;;;17.13;9.43;;;;;;;;;;5062348;28;20512;-68
2023/12/02 07:52:30;;;;;;;22.07;10.03;;;;;;;;;;5063074;28;20459;-68
2023/12/02 07:54:56;;;;;;;17.00;9.27;;;;;;;;;;5096227;28;20428;-68
2023/12/02 08:00:57;;;;;;;20.63;10.47;;;;;;;;;;5096436;28;20410;-69
2023/12/02 08:03:24;;;;;;;21.83;11.00;;;;;;;;;;5096863;28;20500;-68
2023/12/02 08:09:52;;;;;;;17.10;9.77;;;;;;;;;;5096894;28;20414;-68
2023/12/02 08:12:21;;;;;;;20.57;10.10;;;;;;;;;;5062670;28;20463;-69
2023/12/02 08:14:48;;;;;;;17.90;9.83;;;;;;;;;;5094613;28;20493;-68
2023/12/02 08:17:14;;;;;;;21.43;10.87;;;;;;;;;;5095087;28;20472;-71
2023/12/02 08:20:16;;;;;;;24.87;13.17;;;;;;;;;;5095791;28;20431;-69
2023/12/02 08:22:43;;;;;;;41.53;18.90;;;;;;;;;;5078638;28;20427;-69
2023/12/02 08:25:10;;;;;;;38.43;17.60;;;;;;;;;;5095484;28;20451;-69
2023/12/02 08:31:36;;;;;;;26.27;12.30;;;;;;;;;;5096125;28;20426;-68
2023/12/02 08:34:03;;;;;;;30.20;12.77;;;;;;;;;;5096891;28;20431;-68
2023/12/02 08:44:03;;;;;;;30.40;14.07;;;;;;;;;;5095890;28;20425;-69
2023/12/02 08:46:30;;;;;;;29.67;14.77;;;;;;;;;;5078153;28;20431;-68
2023/12/02 08:48:56;;;;;;;28.37;13.53;;;;;;;;;;5078424;28;20518;-68
2023/12/02 08:51:23;;;;;;;29.00;13.73;;;;;;;;;;5095889;28;20454;-68
2023/12/02 08:53:55;;;;;;;49.43;23.23;;;;;;;;;;5078141;28;20427;-68
2023/12/02 08:56:46;;;;;;;50.63;23.10;;;;;;;;;;5060131;28;20435;-68
2023/12/02 08:59:13;;;;;;;66.00;28.20;;;;;;;;;;5094161;28;20416;-67
2023/12/02 09:01:57;;;;;;;52.30;24.23;;;;;;;;;;5081049;28;20969;-68
2023/12/02 09:08:23;;;;;;;26.00;13.70;;;;;;;;;;5095655;28;20355;-69
2023/12/02 09:10:50;;;;;;;32.10;15.63;;;;;;;;;;5061313;28;20766;-68
2023/12/02 09:13:44;;;;;;;37.83;17.70;;;;;;;;;;5080453;28;20485;-69
2023/12/02 09:19:31;;;;;;;30.10;15.17;;;;;;;;;;5093349;28;20914;-69
2023/12/02 09:21:58;;;;;;;33.33;15.13;;;;;;;;;;5094139;28;20468;-69
2023/12/02 09:28:44;;;;;;;21.70;11.17;;;;;;;;;;5095356;28;20958;-69
2023/12/02 09:35:10;;;;;;;25.73;13.87;;;;;;;;;;5094553;28;20430;-68
2023/12/02 09:38:18;;;;;;;26.87;13.67;;;;;;;;;;5093186;28;20408;-69
2023/12/02 09:41:04;;;;;;;24.90;13.30;;;;;;;;;;5092984;28;20431;-69
2023/12/02 09:43:37;;;;;;;25.97;14.23;;;;;;;;;;5095958;28;20491;-69
2023/12/02 09:50:04;;;;;;;23.33;11.57;;;;;;;;;;5094718;28;20491;-69
2023/12/02 09:52:38;;;;;;;20.60;11.57;;;;;;;;;;5095475;28;20890;-69
2023/12/02 09:55:23;;;;;;;21.73;11.43;;;;;;;;;;5094869;28;20396;-68
2023/12/02 09:57:51;;;;;;;20.63;11.17;;;;;;;;;;5093261;28;20909;-72
2023/12/02 10:00:52;;;;;;;20.97;11.60;;;;;;;;;;5078497;28;20855;-68
2023/12/02 10:03:19;;;;;;;22.83;11.60;;;;;;;;;;5059982;28;20487;-68
2023/12/02 10:05:53;;;;;;;24.87;12.77;;;;;;;;;;5076452;28;20933;-68
2023/12/02 10:08:45;;;;;;;24.30;12.57;;;;;;;;;;5076548;28;20419;-68
2023/12/02 10:11:21;;;;;;;28.57;11.87;;;;;;;;;;5093016;28;20435;-69
2023/12/02 10:13:53;;;;;;;25.20;11.43;;;;;;;;;;5060105;28;20458;-68
2023/12/02 10:16:50;;;;;;;21.87;11.40;;;;;;;;;;5058845;28;20489;-68
2023/12/02 10:19:30;;;;;;;19.93;11.00;;;;;;;;;;5093623;28;20887;-68
2023/12/02 10:26:46;;;;;;;17.90;11.13;;;;;;;;;;5094146;28;20866;-68
2023/12/02 10:29:31;;;;;;;16.53;9.20;;;;;;;;;;5076654;28;20876;-68
2023/12/02 10:32:18;;;;;;;18.47;10.77;;;;;;;;;;5060082;28;20747;-68
2023/12/02 10:35:01;;;;;;;21.73;10.73;;;;;;;;;;5059518;28;20909;-68
2023/12/02 10:37:32;;;;;;;18.83;9.43;;;;;;;;;;5091316;28;20462;-68
2023/12/02 10:39:59;;;;;;;22.33;10.33;;;;;;;;;;5075776;28;20430;-68
2023/12/02 10:42:27;;;;;;;20.50;10.20;;;;;;;;;;5059149;28;20462;-68
2023/12/02 10:45:04;;;;;;;18.97;10.23;;;;;;;;;;5075761;28;20477;-69
2023/12/02 10:47:31;;;;;;;20.67;10.33;;;;;;;;;;5059906;28;20701;-68
2023/12/02 10:49:59;;;;;;;22.07;10.83;;;;;;;;;;5075278;28;20459;-68
2023/12/02 10:52:28;;;;;;;21.03;11.20;;;;;;;;;;5059760;28;20504;-68
2023/12/02 10:55:23;;;;;;;18.87;10.20;;;;;;;;;;5059259;28;20438;-68
2023/12/02 10:57:49;;;;;;;20.10;10.13;;;;;;;;;;5092488;28;20420;-68
2023/12/02 11:00:18;;;;;;;21.00;11.40;;;;;;;;;;5075805;28;20447;-68
2023/12/02 11:06:53;;;;;;;20.70;10.60;;;;;;;;;;5093730;28;20413;-68
2023/12/02 11:09:31;;;;;;;19.40;9.53;;;;;;;;;;5059742;28;20434;-68
2023/12/02 11:12:07;;;;;;;20.60;9.23;;;;;;;;;;5075405;28;20913;-68
2023/12/02 11:14:39;;;;;;;15.03;8.57;;;;;;;;;;5091528;28;20407;-68
2023/12/02 11:17:06;;;;;;;14.77;8.63;;;;;;;;;;5074479;28;20423;-68
2023/12/02 11:19:41;;;;;;;15.87;8.07;;;;;;;;;;5058944;28;20948;-68
2023/12/02 11:26:02;;;;;;;17.03;9.60;;;;;;;;;;5093635;28;20172;-68
2023/12/02 11:28:48;;;;;;;17.40;9.50;;;;;;;;;;5094138;28;20597;-68
2023/12/02 11:31:33;;;;;;;15.37;9.67;;;;;;;;;;5075763;28;20455;-68
2023/12/02 11:34:26;;;;;;;19.53;10.97;;;;;;;;;;5073518;28;20523;-68
2023/12/02 11:37:08;;;;;;;20.17;10.90;;;;;;;;;;5091504;28;20396;-68
2023/12/02 11:39:54;;;;;;;23.97;13.37;;;;;;;;;;5059159;28;20719;-68
2023/12/02 11:42:21;;;;;;;23.00;13.37;;;;;;;;;;5075314;28;20786;-68
2023/12/02 11:44:53;;;;;;;20.70;11.43;;;;;;;;;;5075183;28;20672;-68
2023/12/02 11:47:23;;;;;;;20.90;11.33;;;;;;;;;;5092319;28;20433;-68
2023/12/02 11:49:50;;;;;;;19.13;11.33;;;;;;;;;;5093246;28;20845;-68
2023/12/02 11:52:56;;;;;;;21.70;12.77;;;;;;;;;;5091212;28;20215;-68
2023/12/02 11:55:37;;;;;;;27.83;17.07;;;;;;;;;;5092330;28;21065;-68
2023/12/02 11:58:12;;;;;;;20.03;11.60;;;;;;;;;;5075146;28;20743;-68
2023/12/02 12:01:22;;;;;;;15.73;9.50;;;;;;;;;;5067154;28;20395;-68
2023/12/02 12:03:53;;;;;;;15.33;8.40;;;;;;;;;;5079831;28;20761;-68
2023/12/02 12:06:32;;;;;;;15.53;9.23;;;;;;;;;;5062394;28;20908;-69
2023/12/02 12:09:02;;;;;;;14.77;8.47;;;;;;;;;;5095216;28;20644;-69
2023/12/02 12:11:29;;;;;;;23.37;11.47;;;;;;;;;;5095021;28;20447;-68
2023/12/02 12:13:56;;;;;;;20.53;11.80;;;;;;;;;;5078283;28;20801;-68
2023/12/02 12:16:22;;;;;;;19.60;12.10;;;;;;;;;;5096606;28;20846;-68
2023/12/02 12:19:03;;;;;;;20.67;12.37;;;;;;;;;;5063793;28;20423;-68
2023/12/02 12:21:29;;;;;;;19.63;12.70;;;;;;;;;;5062430;28;20431;-68
2023/12/02 12:23:56;;;;;;;66.23;32.40;;;;;;;;;;5078432;28;20435;-68
2023/12/02 12:26:23;;;;;;;69.77;33.43;;;;;;;;;;5078696;28;20517;-68
2023/12/02 12:28:49;;;;;;;102.03;50.80;;;;;;;;;;5096586;28;20522;-68
2023/12/02 12:31:17;;;;;;;86.17;44.20;;;;;;;;;;5076947;28;20544;-68
2023/12/02 12:33:44;;;;;;;30.10;16.63;;;;;;;;;;5077936;28;20205;-68
2023/12/02 12:36:10;;;;;;;23.23;12.53;;;;;;;;;;5061338;28;20193;-68
2023/12/02 12:38:37;;;;;;;25.77;14.47;;;;;;;;;;5061369;28;20428;-68
2023/12/02 12:41:05;;;;;;;21.23;12.53;;;;;;;;;;5096209;28;20450;-68
2023/12/02 12:43:35;;;;;;;26.63;15.33;;;;;;;;;;5078626;28;20604;-69
2023/12/02 12:46:02;;;;;;;26.20;15.43;;;;;;;;;;5062694;28;20443;-68
2023/12/02 12:48:29;;;;;;;25.77;14.97;;;;;;;;;;5076341;28;20271;-74
2023/12/02 12:50:57;;;;;;;24.60;14.43;;;;;;;;;;5076890;28;20554;-68
2023/12/02 12:53:28;;;;;;;24.70;14.33;;;;;;;;;;5044684;28;21013;-68
2023/12/02 12:59:58;;;;;;;21.53;12.67;;;;;;;;;;5095890;28;20172;-68
2023/12/02 13:02:36;;;;;;;20.03;12.00;;;;;;;;;;5062505;28;20246;-68
2023/12/02 13:05:20;;;;;;;16.47;10.00;;;;;;;;;;5063601;28;20436;-68
2023/12/02 13:08:12;;;;;;;15.97;9.30;;;;;;;;;;5059563;28;20500;-68
2023/12/02 13:10:41;;;;;;;18.37;10.17;;;;;;;;;;5075345;28;20777;-68
2023/12/02 13:13:09;;;;;;;18.40;10.67;;;;;;;;;;5094774;28;20455;-69
2023/12/02 13:19:36;;;;;;;17.07;10.50;;;;;;;;;;5095507;28;20445;-69
2023/12/02 13:22:03;;;;;;;21.07;10.97;;;;;;;;;;5095300;28;20477;-68
2023/12/02 13:24:31;;;;;;;19.07;10.83;;;;;;;;;;5077557;28;20621;-68
2023/12/02 13:26:58;;;;;;;16.47;10.17;;;;;;;;;;5076393;28;20804;-68
2023/12/02 13:29:25;;;;;;;17.90;10.17;;;;;;;;;;5076341;28;20490;-68
2023/12/02 13:32:31;;;;;;;17.87;10.47;;;;;;;;;;5065529;28;20505;-68
2023/12/02 13:35:02;;;;;;;100.37;47.13;;;;;;;;;;5094413;28;20396;-68
2023/12/02 13:37:52;;;;;;;55.10;28.57;;;;;;;;;;5066307;28;20379;-69
2023/12/02 13:40:19;;;;;;;44.10;24.30;;;;;;;;;;5094896;28;20415;-68
2023/12/02 13:43:05;;;;;;;35.63;20.00;;;;;;;;;;5063088;28;20417;-68
2023/12/02 13:45:32;;;;;;;62.87;34.53;;;;;;;;;;5058712;28;20446;-71
2023/12/02 13:47:59;;;;;;;42.73;24.83;;;;;;;;;;5076543;28;20732;-67
2023/12/02 13:50:28;;;;;;;35.07;19.17;;;;;;;;;;5093052;28;20463;-68
2023/12/02 13:53:14;;;;;;;31.37;17.33;;;;;;;;;;5059984;28;20962;-68
2023/12/02 13:55:51;;;;;;;30.20;16.27;;;;;;;;;;5060357;28;20485;-68
2023/12/02 13:58:20;;;;;;;28.17;15.33;;;;;;;;;;5060265;28;20455;-68
2023/12/02 14:01:07;;;;;;;28.43;15.47;;;;;;;;;;5066022;28;20862;-68
2023/12/02 14:04:03;;;;;;;27.33;15.47;;;;;;;;;;5058795;28;20443;-69
2023/12/02 14:06:48;;;;;;;38.77;19.43;;;;;;;;;;5075509;28;20424;-68
2023/12/02 14:09:48;;;;;;;34.80;18.13;;;;;;;;;;5094495;28;20457;-68
2023/12/02 14:12:27;;;;;;;35.57;18.20;;;;;;;;;;5076297;28;21033;-68
2023/12/02 14:14:57;;;;;;;31.80;17.63;;;;;;;;;;5094304;28;20450;-68
2023/12/02 14:17:47;;;;;;;30.57;16.07;;;;;;;;;;5076407;28;20447;-68
2023/12/02 14:20:18;;;;;;;30.57;15.50;;;;;;;;;;5056222;28;20449;-68
2023/12/02 14:23:34;;;;;;;29.83;16.00;;;;;;;;;;5060639;28;20419;-68
2023/12/02 14:26:23;;;;;;;31.67;16.53;;;;;;;;;;5092824;28;20479;-68
2023/12/02 14:32:44;;;;;;;32.20;18.13;;;;;;;;;;5094134;28;20839;-68
2023/12/02 14:35:17;;;;;;;39.40;20.73;;;;;;;;;;5093630;28;20435;-68
2023/12/02 14:38:02;;;;;;;38.67;20.00;;;;;;;;;;5094062;28;20781;-68
2023/12/02 14:40:36;;;;;;;39.23;20.90;;;;;;;;;;5092862;28;20876;-68
2023/12/02 14:43:09;;;;;;;44.03;21.50;;;;;;;;;;5059201;28;20932;-68
2023/12/02 14:45:36;;;;;;;45.17;22.53;;;;;;;;;;5058900;28;20496;-68
2023/12/02 14:48:03;;;;;;;43.07;21.50;;;;;;;;;;5075190;28;20440;-68
2023/12/02 14:50:30;;;;;;;41.10;20.93;;;;;;;;;;5075944;28;20455;-67
2023/12/02 14:53:16;;;;;;;44.37;22.17;;;;;;;;;;5079027;28;20480;-68
2023/12/02 14:55:45;;;;;;;48.20;21.77;;;;;;;;;;5075980;28;20419;-68
2023/12/02 14:58:25;;;;;;;39.47;21.20;;;;;;;;;;5074947;28;20419;-67
2023/12/02 15:04:36;;;;;;;35.07;17.27;;;;;;;;;;5094493;28;20411;-67
2023/12/02 15:07:03;;;;;;;29.73;15.60;;;;;;;;;;5059894;28;20396;-67
2023/12/02 15:09:30;;;;;;;31.27;16.70;;;;;;;;;;5058918;28;20431;-69
2023/12/02 15:12:01;;;;;;;33.77;15.97;;;;;;;;;;5075607;28;20441;-69
2023/12/02 15:14:28;;;;;;;27.03;15.10;;;;;;;;;;5060012;28;20430;-67
2023/12/02 15:16:55;;;;;;;26.33;14.70;;;;;;;;;;5092009;28;20408;-69
2023/12/02 15:19:22;;;;;;;26.77;15.03;;;;;;;;;;5058470;28;20442;-68
2023/12/02 15:22:08;;;;;;;26.53;15.23;;;;;;;;;;5075626;28;20822;-67
2023/12/02 15:24:38;;;;;;;29.50;15.43;;;;;;;;;;5093300;28;20406;-67
2023/12/02 15:27:05;;;;;;;26.50;15.00;;;;;;;;;;5075441;28;20509;-69
2023/12/02 15:29:32;;;;;;;27.37;15.07;;;;;;;;;;5093718;28;20422;-69
2023/12/02 15:31:58;;;;;;;29.03;15.43;;;;;;;;;;5059080;28;20770;-69
2023/12/02 15:35:09;;;;;;;31.67;16.90;;;;;;;;;;5093115;28;20951;-69
2023/12/02 15:37:35;;;;;;;35.00;19.10;;;;;;;;;;5096510;28;20939;-68
2023/12/02 15:40:02;;;;;;;40.03;20.63;;;;;;;;;;5062352;28;20432;-69
2023/12/02 15:42:29;;;;;;;42.53;22.03;;;;;;;;;;5061821;28;20437;-69
2023/12/02 15:48:50;;;;;;;43.50;19.73;;;;;;;;;;5097042;28;20460;-69
2023/12/02 15:51:20;;;;;;;41.10;20.60;;;;;;;;;;5061950;28;20455;-69
2023/12/02 15:53:47;;;;;;;42.23;21.97;;;;;;;;;;5077383;28;20463;-68
2023/12/02 15:56:14;;;;;;;46.70;24.63;;;;;;;;;;5078341;28;20513;-69
2023/12/02 15:58:41;;;;;;;48.23;23.90;;;;;;;;;;5062479;28;20431;-69
2023/12/02 16:01:11;;;;;;;83.50;43.50;;;;;;;;;;5078562;28;20524;-69
2023/12/02 16:03:38;;;;;;;60.40;31.43;;;;;;;;;;5062673;28;20423;-69
2023/12/02 16:09:59;;;;;;;94.77;40.73;;;;;;;;;;5096085;28;20413;-69
2023/12/02 16:15:42;;;;;;;144.17;63.50;;;;;;;;;;5058285;28;20432;-69
2023/12/02 16:18:09;;;;;;;167.53;75.63;;;;;;;;;;5041411;28;20428;-68
2023/12/02 16:20:36;;;;;;;74.40;41.57;;;;;;;;;;5076808;28;20428;-69
2023/12/02 16:23:02;;;;;;;50.23;29.17;;;;;;;;;;5077012;28;20725;-69
2023/12/02 16:25:32;;;;;;;41.70;24.60;;;;;;;;;;5042821;28;20941;-68
2023/12/02 16:27:59;;;;;;;43.60;21.37;;;;;;;;;;5041630;28;20424;-69
2023/12/02 16:34:07;;;;;;;40.87;20.27;;;;;;;;;;5075816;28;20436;-69
2023/12/02 16:40:34;;;;;;;31.20;16.27;;;;;;;;;;5075895;28;20380;-69
2023/12/02 16:43:01;;;;;;;31.93;15.63;;;;;;;;;;5075620;28;20435;-68
2023/12/02 16:45:28;;;;;;;31.43;15.77;;;;;;;;;;5075422;28;20422;-69
2023/12/02 16:47:59;;;;;;;27.73;15.80;;;;;;;;;;5039607;28;20970;-69
2023/12/02 16:50:26;;;;;;;27.83;13.77;;;;;;;;;;5041685;28;20495;-69
2023/12/02 16:53:11;;;;;;;16.40;8.73;;;;;;;;;;5075524;28;20400;-68
2023/12/02 16:59:46;;;;;;;22.43;11.77;;;;;;;;;;5075492;28;20461;-67
2023/12/02 17:02:16;;;;;;;23.10;11.37;;;;;;;;;;5041607;28;20420;-67
2023/12/02 17:07:39;;;;;;;23.80;12.57;;;;;;;;;;5074401;28;20417;-68
2023/12/02 17:10:26;;;;;;;24.60;12.90;;;;;;;;;;5057376;28;20931;-68
2023/12/02 17:16:53;;;;;;;25.73;14.13;;;;;;;;;;5075164;28;20392;-69
2023/12/02 17:19:22;;;;;;;27.20;13.50;;;;;;;;;;5041480;28;20799;-69
2023/12/02 17:21:50;;;;;;;25.37;13.90;;;;;;;;;;5056678;28;20483;-68
2023/12/02 17:24:20;;;;;;;25.93;13.63;;;;;;;;;;5039344;28;20527;-69
2023/12/02 17:26:52;;;;;;;34.40;16.03;;;;;;;;;;5074721;28;20817;-68
2023/12/02 17:33:12;;;;;;;30.27;15.43;;;;;;;;;;5074758;28;20902;-68
2023/12/02 17:35:39;;;;;;;29.03;16.27;;;;;;;;;;5057553;28;20490;-68
2023/12/02 17:38:06;;;;;;;33.33;17.63;;;;;;;;;;5074590;28;20428;-68
2023/12/02 17:40:32;;;;;;;34.10;18.03;;;;;;;;;;5039582;28;20784;-68
2023/12/02 17:46:14;;;;;;;37.87;20.40;;;;;;;;;;5056274;28;20428;-68
2023/12/02 17:52:33;;;;;;;45.03;24.63;;;;;;;;;;5068018;28;20454;-68
2023/12/02 17:55:00;;;;;;;46.97;26.53;;;;;;;;;;5074446;28;20456;-68
2023/12/02 17:57:29;;;;;;;37.63;22.23;;;;;;;;;;5056263;28;20420;-68
2023/12/02 18:00:16;;;;;;;35.80;20.53;;;;;;;;;;5054840;28;20463;-69
2023/12/02 18:02:43;;;;;;;39.43;20.13;;;;;;;;;;5056130;28;20440;-68
2023/12/02 18:09:09;;;;;;;34.63;18.77;;;;;;;;;;5074158;28;20391;-69
2023/12/02 18:11:36;;;;;;;40.00;20.67;;;;;;;;;;5074720;28;20728;-68
2023/12/02 18:14:03;;;;;;;38.80;19.40;;;;;;;;;;5057008;28;20456;-68
2023/12/02 18:16:30;;;;;;;39.30;19.97;;;;;;;;;;5054978;28;20455;-69
2023/12/02 18:22:59;;;;;;;35.00;17.97;;;;;;;;;;5072886;28;20810;-68
2023/12/02 18:25:26;;;;;;;39.43;18.70;;;;;;;;;;5056199;28;20519;-68
2023/12/02 18:31:47;;;;;;;30.47;16.03;;;;;;;;;;5073847;28;20380;-68
2023/12/02 18:37:25;;;;;;;45.10;24.57;;;;;;;;;;5072665;28;20412;-68
2023/12/02 18:39:51;;;;;;;58.60;30.43;;;;;;;;;;5055717;28;20416;-68
2023/12/02 18:42:18;;;;;;;36.97;20.33;;;;;;;;;;5055410;28;20426;-68
2023/12/02 18:48:47;;;;;;;36.43;18.30;;;;;;;;;;5073716;28;20357;-68
2023/12/02 18:51:14;;;;;;;39.87;20.20;;;;;;;;;;5039395;28;20476;-68
2023/12/02 18:54:20;;;;;;;36.80;19.93;;;;;;;;;;5071988;28;20808;-69
2023/12/02 19:00:47;;;;;;;31.40;15.97;;;;;;;;;;5073539;28;20348;-68
2023/12/02 19:03:14;;;;;;;28.17;14.97;;;;;;;;;;5055669;28;20435;-68
2023/12/02 19:05:41;;;;;;;29.33;14.77;;;;;;;;;;5073974;28;20421;-68
2023/12/02 19:08:09;;;;;;;29.67;15.67;;;;;;;;;;5055706;28;20450;-68
2023/12/02 19:10:36;;;;;;;29.70;14.67;;;;;;;;;;5040560;28;20906;-68
2023/12/02 19:16:56;;;;;;;32.33;16.50;;;;;;;;;;5096908;28;20451;-68
2023/12/02 19:19:25;;;;;;;33.20;17.00;;;;;;;;;;5098244;28;20433;-68
2023/12/02 19:21:52;;;;;;;32.90;17.00;;;;;;;;;;5063740;28;20435;-68
2023/12/02 19:24:19;;;;;;;30.37;17.60;;;;;;;;;;5063112;28;20435;-68
2023/12/02 19:26:46;;;;;;;34.80;17.87;;;;;;;;;;5079264;28;20455;-68
2023/12/02 19:29:22;;;;;;;31.80;16.50;;;;;;;;;;5095687;28;20849;-68
2023/12/02 19:32:07;;;;;;;27.60;15.50;;;;;;;;;;5081823;28;20411;-68
2023/12/02 19:38:33;;;;;;;28.23;14.47;;;;;;;;;;5097374;28;20892;-68
2023/12/02 19:41:00;;;;;;;30.47;15.00;;;;;;;;;;5096098;28;20440;-68
2023/12/02 19:43:27;;;;;;;32.53;15.90;;;;;;;;;;5097207;28;20910;-68
2023/12/02 19:45:54;;;;;;;31.20;15.90;;;;;;;;;;5078009;28;20809;-68